createdAt,value
2023-02-24T00:05:56.248Z,97738.84
2023-02-24T00:08:22.829Z,97741.47
2023-02-24T00:10:49.706Z,97737.84
2023-02-24T00:13:22.283Z,97745.41
2023-02-24T00:16:18.757Z,97748.63
2023-02-24T00:18:45.528Z,97752.81
2023-02-24T00:21:14.824Z,97754.78
2023-02-24T00:23:42.750Z,97763.97
2023-02-24T00:26:10.150Z,97760.59
2023-02-24T00:28:36.936Z,97758.38
2023-02-24T00:31:10.970Z,97771.81
2023-02-24T00:33:39.443Z,97758.19
2023-02-24T00:36:17.310Z,97767.53
2023-02-24T00:38:47.263Z,97764.00
2023-02-24T00:41:16.395Z,97790.00
2023-02-24T00:43:48.959Z,97790.97
2023-02-24T00:46:18.038Z,97770.59
2023-02-24T00:48:45.992Z,97755.00
2023-02-24T00:51:13.843Z,97758.19
2023-02-24T00:53:40.579Z,97763.75
2023-02-24T00:56:07.640Z,97768.41
2023-02-24T00:58:35.339Z,97769.66
2023-02-24T01:01:03.921Z,97776.03
2023-02-24T01:03:32.033Z,97786.88
2023-02-24T01:06:03.288Z,97786.94
2023-02-24T01:08:30.315Z,97787.97
2023-02-24T01:11:19.283Z,97769.72
2023-02-24T01:13:46.137Z,97766.59
2023-02-24T01:16:18.719Z,97771.91
2023-02-24T01:18:48.613Z,97761.00
2023-02-24T01:21:19.805Z,97761.34
2023-02-24T01:23:50.186Z,97757.06
2023-02-24T01:26:17.535Z,97755.72
2023-02-24T01:28:46.383Z,97753.94
2023-02-24T01:31:13.147Z,97757.31
2023-02-24T01:33:39.865Z,97745.09
2023-02-24T01:36:10.111Z,97751.31
2023-02-24T01:38:37.229Z,97761.63
2023-02-24T01:41:05.198Z,97757.00
2023-02-24T01:43:33.064Z,97755.72
2023-02-24T01:46:00.130Z,97766.13
2023-02-24T01:48:26.828Z,97769.56
2023-02-24T01:50:53.767Z,97757.56
2023-02-24T01:53:20.396Z,97729.19
2023-02-24T01:55:49.937Z,97724.03
2023-02-24T01:58:25.124Z,97728.88
2023-02-24T02:00:55.025Z,97725.38
2023-02-24T02:03:29.685Z,97724.00
2023-02-24T02:10:10.162Z,97714.25
2023-02-24T02:12:38.452Z,97723.28
2023-02-24T02:15:05.706Z,97713.72
2023-02-24T02:17:51.351Z,97702.63
2023-02-24T02:20:28.471Z,97695.22
2023-02-24T02:23:19.936Z,97685.66
2023-02-24T02:26:18.895Z,97686.50
2023-02-24T02:29:23.042Z,97666.88
2023-02-24T02:32:05.840Z,97652.34
2023-02-24T02:34:53.828Z,97645.59
2023-02-24T02:37:30.419Z,97654.59
2023-02-24T02:40:23.293Z,97634.47
2023-02-24T02:42:59.223Z,97623.91
2023-02-24T02:45:35.489Z,97623.91
2023-02-24T02:48:08.575Z,97623.78
2023-02-24T02:50:54.980Z,97619.31
2023-02-24T02:53:43.130Z,97625.13
2023-02-24T02:56:18.005Z,97624.75
2023-02-24T02:58:47.808Z,97645.59
2023-02-24T03:01:18.536Z,97650.38
2023-02-24T03:03:49.289Z,97639.19
2023-02-24T03:06:30.842Z,97630.34
2023-02-24T03:08:59.233Z,97630.13
2023-02-24T03:11:26.813Z,97633.31
2023-02-24T03:13:56.118Z,97619.75
2023-02-24T03:16:23.750Z,97629.41
2023-02-24T03:18:57.187Z,97629.84
2023-02-24T03:21:33.023Z,97628.22
2023-02-24T03:24:00.193Z,97620.53
2023-02-24T03:30:22.439Z,97641.72
2023-02-24T03:32:59.386Z,97631.56
2023-02-24T03:35:30.429Z,97631.59
2023-02-24T03:37:57.875Z,97626.34
2023-02-24T03:40:30.051Z,97614.59
2023-02-24T03:42:59.597Z,97620.72
2023-02-24T03:45:27.943Z,97624.09
2023-02-24T03:47:56.130Z,97612.81
2023-02-24T03:50:23.097Z,97627.28
2023-02-24T03:53:18.906Z,97641.72
2023-02-24T03:56:01.152Z,97650.97
2023-02-24T03:58:52.594Z,97662.56
2023-02-24T04:01:26.195Z,97652.72
2023-02-24T04:04:15.657Z,97645.25
2023-02-24T04:06:56.335Z,97652.06
2023-02-24T04:09:50.505Z,97647.63
2023-02-24T04:12:38.845Z,97648.56
2023-02-24T04:15:10.664Z,97650.78
2023-02-24T04:17:45.806Z,97646.13
2023-02-24T04:20:16.376Z,97638.28
2023-02-24T04:22:51.612Z,97627.13
2023-02-24T04:25:24.857Z,97631.16
2023-02-24T04:27:54.552Z,97642.88
2023-02-24T04:30:21.575Z,97646.84
2023-02-24T04:32:48.296Z,97651.81
2023-02-24T04:35:17.060Z,97652.25
2023-02-24T04:37:49.137Z,97634.91
2023-02-24T04:40:17.749Z,97637.44
2023-02-24T04:42:48.897Z,97648.28
2023-02-24T04:45:16.962Z,97640.81
2023-02-24T04:47:46.144Z,97650.75
2023-02-24T04:50:22.749Z,97660.81
2023-02-24T04:56:55.006Z,97666.97
2023-02-24T04:59:21.925Z,97659.09
2023-02-24T05:01:51.655Z,97654.72
2023-02-24T05:04:18.502Z,97620.78
2023-02-24T05:06:45.406Z,97616.94
2023-02-24T05:09:19.447Z,97622.88
2023-02-24T05:11:49.088Z,97631.22
2023-02-24T05:14:16.777Z,97606.41
2023-02-24T05:16:43.771Z,97596.03
2023-02-24T05:19:33.137Z,97601.09
2023-02-24T05:21:59.808Z,97612.31
2023-02-24T05:24:27.215Z,97620.72
2023-02-24T05:26:58.139Z,97615.16
2023-02-24T05:29:29.126Z,97604.38
2023-02-24T05:31:59.818Z,97608.66
2023-02-24T05:34:27.455Z,97615.19
2023-02-24T05:36:54.148Z,97615.56
2023-02-24T05:39:21.195Z,97622.66
2023-02-24T05:41:49.030Z,97620.50
2023-02-24T05:44:17.480Z,97615.28
2023-02-24T05:46:45.949Z,97611.19
2023-02-24T05:49:14.342Z,97604.19
2023-02-24T05:51:43.483Z,97583.53
2023-02-24T05:54:12.062Z,97575.84
2023-02-24T05:56:39.637Z,97561.41
2023-02-24T05:59:08.962Z,97552.38
2023-02-24T06:01:37.266Z,97546.44
2023-02-24T06:04:07.819Z,97546.78
2023-02-24T06:06:43.374Z,97540.78
2023-02-24T06:09:12.662Z,97543.50
2023-02-24T06:11:40.751Z,97534.22
2023-02-24T06:14:07.472Z,97544.28
2023-02-24T06:16:35.590Z,97533.38
2023-02-24T06:19:02.440Z,97540.44
2023-02-24T06:21:31.742Z,97563.88
2023-02-24T06:23:58.819Z,97567.13
2023-02-24T06:26:29.793Z,97580.50
2023-02-24T06:28:58.056Z,97581.34
2023-02-24T06:31:25.175Z,97579.69
2023-02-24T06:33:53.289Z,97570.88
2023-02-24T06:36:20.505Z,97576.09
2023-02-24T06:38:47.116Z,97568.09
2023-02-24T06:41:13.787Z,97572.44
2023-02-24T06:43:41.294Z,97587.31
2023-02-24T06:46:07.964Z,97581.03
2023-02-24T06:48:34.659Z,97592.78
2023-02-24T06:51:05.215Z,97591.00
2023-02-24T06:53:34.897Z,97587.25
2023-02-24T06:56:07.089Z,97577.53
2023-02-24T06:58:33.709Z,97583.28
2023-02-24T07:01:02.640Z,97568.50
2023-02-24T07:03:47.861Z,97565.75
2023-02-24T07:06:20.899Z,97561.41
2023-02-24T07:08:48.107Z,97552.81
2023-02-24T07:11:17.613Z,97548.69
2023-02-24T07:13:44.778Z,97548.34
2023-02-24T07:16:12.110Z,97538.28
2023-02-24T07:18:41.606Z,97538.38
2023-02-24T07:21:16.284Z,97536.38
2023-02-24T07:23:44.307Z,97533.53
2023-02-24T07:26:13.437Z,97526.91
2023-02-24T07:28:40.666Z,97520.56
2023-02-24T07:31:08.531Z,97514.59
2023-02-24T07:33:45.270Z,97511.00
2023-02-24T07:36:14.922Z,97502.09
2023-02-24T07:38:42.275Z,97499.50
2023-02-24T07:41:12.382Z,97499.69
2023-02-24T07:43:39.799Z,97464.16
2023-02-24T07:46:08.238Z,97464.63
2023-02-24T07:48:36.467Z,97476.81
2023-02-24T07:51:08.119Z,97484.78
2023-02-24T07:53:35.585Z,97466.38
2023-02-24T07:56:17.577Z,97472.47
2023-02-24T07:58:44.611Z,97458.06
2023-02-24T08:01:22.888Z,97459.63
2023-02-24T08:03:52.058Z,97463.03
2023-02-24T08:06:27.277Z,97459.38
2023-02-24T08:09:10.099Z,97456.56
2023-02-24T08:11:38.595Z,97462.53
2023-02-24T08:14:11.077Z,97450.25
2023-02-24T08:16:40.461Z,97453.94
2023-02-24T08:19:08.036Z,97463.91
2023-02-24T08:21:41.512Z,97468.47
2023-02-24T08:24:25.389Z,97467.06
2023-02-24T08:27:05.344Z,97454.81
2023-02-24T08:29:58.119Z,97442.53
2023-02-24T08:32:33.826Z,97418.56
2023-02-24T08:35:03.611Z,97422.13
2023-02-24T08:37:47.152Z,97417.47
2023-02-24T08:40:32.896Z,97400.84
2023-02-24T08:43:16.589Z,97378.66
2023-02-24T08:45:50.917Z,97371.34
2023-02-24T08:48:26.540Z,97358.66
2023-02-24T08:50:54.617Z,97360.81
2023-02-24T08:53:21.722Z,97356.03
2023-02-24T08:55:51.892Z,97337.16
2023-02-24T08:58:19.316Z,97329.78
2023-02-24T09:00:53.549Z,97330.41
2023-02-24T09:03:28.168Z,97331.25
2023-02-24T09:06:05.058Z,97343.63
2023-02-24T09:08:33.036Z,97324.28
2023-02-24T09:11:01.195Z,97336.19
2023-02-24T09:13:33.068Z,97345.50
2023-02-24T09:16:04.246Z,97342.34
2023-02-24T09:18:31.048Z,97353.69
2023-02-24T09:21:15.958Z,97350.19
2023-02-24T09:23:48.701Z,97361.88
2023-02-24T09:26:15.325Z,97358.69
2023-02-24T09:28:55.785Z,97353.75
2023-02-24T09:31:24.766Z,97363.03
2023-02-24T09:33:51.677Z,97363.88
2023-02-24T09:36:27.904Z,97374.44
2023-02-24T09:39:02.048Z,97377.66
2023-02-24T09:42:18.136Z,97396.97
2023-02-24T09:44:52.700Z,97373.91
2023-02-24T09:47:56.912Z,97361.94
2023-02-24T09:50:47.286Z,97357.16
2023-02-24T09:53:20.041Z,97349.50
2023-02-24T09:56:03.950Z,97327.03
2023-02-24T09:58:50.354Z,97325.63
2023-02-24T10:01:33.925Z,97324.88
2023-02-24T10:04:19.561Z,97316.19
2023-02-24T10:07:13.016Z,97311.06
2023-02-24T10:09:42.714Z,97317.41
2023-02-24T10:12:32.053Z,97332.91
2023-02-24T10:15:32.342Z,97292.41
2023-02-24T10:18:04.162Z,97290.31
2023-02-24T10:20:39.826Z,97297.78
2023-02-24T10:23:35.127Z,97300.66
2023-02-24T10:26:31.918Z,97287.03
2023-02-24T10:29:30.394Z,97273.50
2023-02-24T10:32:31.679Z,97262.06
2023-02-24T10:34:58.340Z,97256.94
2023-02-24T10:37:29.096Z,97256.53
2023-02-24T10:39:57.977Z,97253.31
2023-02-24T10:42:31.748Z,97260.69
2023-02-24T10:45:17.208Z,97255.22
2023-02-24T10:47:50.014Z,97255.44
2023-02-24T10:50:34.765Z,97249.47
2023-02-24T10:53:26.221Z,97237.88
2023-02-24T10:56:14.713Z,97228.84
2023-02-24T10:58:53.545Z,97240.28
2023-02-24T11:01:40.677Z,97240.44
2023-02-24T11:04:33.096Z,97233.97
2023-02-24T11:07:09.661Z,97237.50
2023-02-24T11:09:44.051Z,97242.19
2023-02-24T11:12:34.733Z,97253.16
2023-02-24T11:15:25.174Z,97232.47
2023-02-24T11:17:58.428Z,97222.13
2023-02-24T11:20:48.455Z,97223.56
2023-02-24T11:23:28.178Z,97221.97
2023-02-24T11:25:59.247Z,97214.13
2023-02-24T11:28:44.653Z,97200.91
2023-02-24T11:31:37.616Z,97194.06
2023-02-24T11:34:30.195Z,97189.97
2023-02-24T11:37:21.265Z,97186.41
2023-02-24T11:39:55.364Z,97199.63
2023-02-24T11:42:47.000Z,97179.56
2023-02-24T11:45:27.590Z,97169.41
2023-02-24T11:47:57.882Z,97162.94
2023-02-24T11:50:49.427Z,97163.09
2023-02-24T11:53:30.358Z,97142.94
2023-02-24T11:56:22.157Z,97120.63
2023-02-24T11:59:31.194Z,97110.88
2023-02-24T12:02:31.338Z,97087.16
2023-02-24T12:05:06.920Z,97069.94
2023-02-24T12:07:37.616Z,97066.84
2023-02-24T12:10:28.112Z,97062.81
2023-02-24T12:13:14.014Z,97022.50
2023-02-24T12:15:56.331Z,97030.28
2023-02-24T12:18:36.268Z,97022.69
2023-02-24T12:21:07.883Z,97005.97
2023-02-24T12:23:35.835Z,96999.25
2023-02-24T12:26:21.583Z,96987.41
2023-02-24T12:29:16.282Z,96999.00
2023-02-24T12:31:50.823Z,96992.97
2023-02-24T12:34:40.145Z,96992.97
2023-02-24T12:37:28.270Z,96982.69
2023-02-24T12:40:26.439Z,96975.28
2023-02-24T12:43:02.282Z,96973.31
2023-02-24T12:45:45.964Z,96955.75
2023-02-24T12:48:28.817Z,96946.56
2023-02-24T12:51:01.335Z,96929.59
2023-02-24T12:53:37.267Z,96912.28
2023-02-24T12:56:15.878Z,96912.25
2023-02-24T12:58:44.572Z,96901.63
2023-02-24T13:01:35.046Z,96891.69
2023-02-24T13:04:26.465Z,96880.09
2023-02-24T13:07:07.922Z,96870.44
2023-02-24T13:10:08.781Z,96866.81
2023-02-24T13:12:38.306Z,96855.22
2023-02-24T13:15:06.281Z,96843.66
2023-02-24T13:17:32.998Z,96838.41
2023-02-24T13:20:09.890Z,96827.66
2023-02-24T13:22:42.067Z,96817.16
2023-02-24T13:25:08.543Z,96805.41
2023-02-24T13:27:59.967Z,96789.50
2023-02-24T13:30:32.101Z,96766.50
2023-02-24T13:33:23.553Z,96754.72
2023-02-24T13:36:04.716Z,96738.19
2023-02-24T13:38:31.256Z,96711.56
2023-02-24T13:41:09.865Z,96695.88
2023-02-24T13:43:36.523Z,96688.63
2023-02-24T13:46:04.511Z,96661.69
2023-02-24T13:49:09.567Z,96649.34
2023-02-24T13:51:36.242Z,96629.63
2023-02-24T13:54:42.111Z,96614.88
2023-02-24T13:57:44.755Z,96577.69
2023-02-24T14:00:36.846Z,96556.19
2023-02-24T14:03:15.297Z,96521.78
2023-02-24T14:05:43.590Z,96488.78
2023-02-24T14:08:24.932Z,96454.28
2023-02-24T14:15:04.200Z,96374.72
2023-02-24T14:17:33.551Z,96355.81
2023-02-24T14:20:18.402Z,96325.88
2023-02-24T14:22:49.177Z,96311.00
2023-02-24T14:25:16.199Z,96292.00
2023-02-24T14:27:47.400Z,96263.50
2023-02-24T14:30:22.749Z,96238.66
2023-02-24T14:32:49.484Z,96218.84
2023-02-24T14:35:40.357Z,96197.94
2023-02-24T14:38:07.058Z,96187.19
2023-02-24T14:40:33.879Z,96175.13
2023-02-24T14:43:00.592Z,96159.47
2023-02-24T14:45:28.284Z,96146.06
2023-02-24T14:47:55.826Z,96133.16
2023-02-24T14:50:32.182Z,96116.59
2023-02-24T14:53:05.079Z,96107.84
2023-02-24T14:55:35.258Z,96099.75
2023-02-24T14:58:07.104Z,96094.00
2023-02-24T15:00:36.366Z,96091.19
2023-02-24T15:03:26.397Z,96081.09
2023-02-24T15:05:54.302Z,96070.41
2023-02-24T15:08:42.984Z,96054.59
2023-02-24T15:11:21.329Z,96047.00
2023-02-24T15:14:06.219Z,96044.22
2023-02-24T15:16:37.041Z,96032.31
2023-02-24T15:19:03.862Z,96031.34
2023-02-24T15:21:38.675Z,96023.06
2023-02-24T15:24:29.063Z,96023.00
2023-02-24T15:27:20.686Z,96013.44
2023-02-24T15:30:02.118Z,96000.38
2023-02-24T15:32:30.856Z,95999.97
2023-02-24T15:34:57.675Z,95986.75
2023-02-24T15:37:29.825Z,95982.38
2023-02-24T15:40:11.758Z,95977.72
2023-02-24T15:42:38.442Z,95972.13
2023-02-24T15:45:06.505Z,95965.03
2023-02-24T15:47:44.320Z,95961.75
2023-02-24T15:50:12.281Z,95965.16
2023-02-24T15:52:39.086Z,95963.00
2023-02-24T15:55:06.394Z,95959.56
2023-02-24T15:57:33.100Z,95953.22
2023-02-24T15:59:59.816Z,95952.91
2023-02-24T16:02:27.574Z,95959.25
2023-02-24T16:04:54.249Z,95950.63
2023-02-24T16:07:25.056Z,95945.41
2023-02-24T16:09:53.162Z,95945.69
2023-02-24T16:12:33.697Z,95949.06
2023-02-24T16:15:04.259Z,95949.41
2023-02-24T16:17:34.224Z,95959.94
2023-02-24T16:20:00.997Z,95961.91
2023-02-24T16:22:27.748Z,95970.31
2023-02-24T16:24:54.450Z,95991.75
2023-02-24T16:27:22.316Z,96006.50
2023-02-24T16:29:49.762Z,96014.94
2023-02-24T16:32:16.570Z,96035.53
2023-02-24T16:34:43.351Z,96040.63
2023-02-24T16:37:20.925Z,96048.50
2023-02-24T16:39:49.411Z,96055.78
2023-02-24T16:42:16.986Z,96078.38
2023-02-24T16:44:43.885Z,96075.81
2023-02-24T16:47:13.782Z,96094.56
2023-02-24T16:49:41.044Z,96097.69
2023-02-24T16:52:08.557Z,96104.84
2023-02-24T16:54:35.971Z,96114.06
2023-02-24T16:57:02.574Z,96122.03
2023-02-24T16:59:29.246Z,96135.66
2023-02-24T17:01:55.879Z,96153.75
2023-02-24T17:04:24.734Z,96155.59
2023-02-24T17:06:51.437Z,96169.91
2023-02-24T17:09:18.045Z,96189.38
2023-02-24T17:11:44.972Z,96206.50
2023-02-24T17:14:17.798Z,96208.63
2023-02-24T17:16:44.902Z,96218.38
2023-02-24T17:19:11.564Z,96234.00
2023-02-24T17:21:40.507Z,96243.69
2023-02-24T17:24:07.472Z,96246.34
2023-02-24T17:26:34.122Z,96258.34
2023-02-24T17:29:00.836Z,96264.56
2023-02-24T17:31:31.887Z,96282.78
2023-02-24T17:33:58.757Z,96290.25
2023-02-24T17:36:25.400Z,96296.09
2023-02-24T17:38:51.987Z,96305.84
2023-02-24T17:41:18.592Z,96316.91
2023-02-24T17:43:45.208Z,96322.13
2023-02-24T17:46:11.919Z,96328.28
2023-02-24T17:48:38.642Z,96334.94
2023-02-24T17:51:05.452Z,96333.94
2023-02-24T17:53:33.954Z,96337.69
2023-02-24T17:56:03.230Z,96340.31
2023-02-24T17:58:30.211Z,96352.31
2023-02-24T18:00:56.983Z,96340.28
2023-02-24T18:03:23.917Z,96347.59
2023-02-24T18:05:58.546Z,96349.34
2023-02-24T18:08:25.160Z,96349.66
2023-02-24T18:10:51.809Z,96351.28
2023-02-24T18:13:18.381Z,96360.13
2023-02-24T18:15:45.022Z,96367.56
2023-02-24T18:18:34.687Z,96364.47
2023-02-24T18:21:02.437Z,96372.59
2023-02-24T18:23:29.526Z,96380.53
2023-02-24T18:25:56.137Z,96373.69
2023-02-24T18:28:22.965Z,96383.16
2023-02-24T18:30:49.710Z,96391.75
2023-02-24T18:33:16.772Z,96394.81
2023-02-24T18:35:43.563Z,96397.06
2023-02-24T18:38:10.211Z,96399.03
2023-02-24T18:40:37.063Z,96399.66
2023-02-24T18:43:04.354Z,96401.88
2023-02-24T18:45:31.039Z,96399.28
2023-02-24T18:48:01.805Z,96403.84
2023-02-24T18:50:28.426Z,96407.47
2023-02-24T18:52:55.011Z,96403.22
2023-02-24T18:55:22.211Z,96412.59
2023-02-24T18:57:48.901Z,96407.59
2023-02-24T19:00:16.103Z,96415.97
2023-02-24T19:02:43.035Z,96422.28
2023-02-24T19:05:10.128Z,96424.13
2023-02-24T19:07:36.728Z,96422.00
2023-02-24T19:10:04.950Z,96424.38
2023-02-24T19:12:31.617Z,96428.19
2023-02-24T19:14:58.197Z,96430.59
2023-02-24T19:17:24.857Z,96429.47
2023-02-24T19:19:52.626Z,96429.63
2023-02-24T19:22:19.227Z,96436.44
2023-02-24T19:24:45.852Z,96425.00
2023-02-24T19:27:12.611Z,96440.66
2023-02-24T19:29:39.346Z,96428.75
2023-02-24T19:32:06.074Z,96428.38
2023-02-24T19:34:32.725Z,96444.72
2023-02-24T19:36:59.373Z,96434.38
2023-02-24T19:39:25.971Z,96437.56
2023-02-24T19:41:53.432Z,96430.78
2023-02-24T19:44:20.013Z,96445.50
2023-02-24T19:46:46.704Z,96444.19
2023-02-24T19:49:13.569Z,96455.75
2023-02-24T19:51:40.190Z,96443.19
2023-02-24T19:54:06.872Z,96434.00
2023-02-24T19:56:34.958Z,96452.22
2023-02-24T19:59:01.683Z,96453.56
2023-02-24T20:01:28.580Z,96446.72
2023-02-24T20:03:56.481Z,96454.50
2023-02-24T20:06:30.366Z,96460.22
2023-02-24T20:09:07.851Z,96456.78
2023-02-24T20:11:36.254Z,96461.97
2023-02-24T20:14:02.924Z,96469.44
2023-02-24T20:16:32.653Z,96474.03
2023-02-24T20:19:00.129Z,96472.59
2023-02-24T20:21:26.847Z,96473.41
2023-02-24T20:23:53.511Z,96451.97
2023-02-24T20:26:20.309Z,96458.97
2023-02-24T20:28:47.540Z,96464.81
2023-02-24T20:31:15.986Z,96472.09
2023-02-24T20:33:43.168Z,96461.88
2023-02-24T20:36:11.006Z,96463.00
2023-02-24T20:38:52.044Z,96457.66
2023-02-24T20:41:19.032Z,96450.38
2023-02-24T20:43:45.645Z,96451.31
2023-02-24T20:46:16.939Z,96449.31
2023-02-24T20:48:43.672Z,96440.25
2023-02-24T20:51:10.403Z,96437.47
2023-02-24T20:53:51.084Z,96434.75
2023-02-24T20:56:23.485Z,96437.66
2023-02-24T20:58:56.468Z,96433.94
2023-02-24T21:01:23.363Z,96424.31
2023-02-24T21:03:50.442Z,96417.34
2023-02-24T21:06:17.216Z,96426.16
2023-02-24T21:08:44.280Z,96415.56
2023-02-24T21:11:11.257Z,96417.84
2023-02-24T21:13:45.712Z,96421.13
2023-02-24T21:16:12.645Z,96414.28
2023-02-24T21:18:40.260Z,96404.53
2023-02-24T21:21:07.362Z,96396.69
2023-02-24T21:23:37.444Z,96388.44
2023-02-24T21:26:04.437Z,96389.09
2023-02-24T21:28:31.485Z,96375.94
2023-02-24T21:30:58.127Z,96378.38
2023-02-24T21:33:24.780Z,96385.69
2023-02-24T21:35:58.363Z,96363.28
2023-02-24T21:38:25.050Z,96373.03
2023-02-24T21:40:51.770Z,96369.28
2023-02-24T21:43:18.437Z,96360.31
2023-02-24T21:45:47.862Z,96356.25
2023-02-24T21:48:14.508Z,96361.84
2023-02-24T21:50:41.112Z,96369.78
2023-02-24T21:53:07.744Z,96364.56
2023-02-24T21:55:35.918Z,96353.50
2023-02-24T21:58:02.678Z,96347.69
2023-02-24T22:00:30.248Z,96346.38
2023-02-24T22:02:56.993Z,96347.03
2023-02-24T22:05:24.691Z,96336.34
2023-02-24T22:07:51.506Z,96339.59
2023-02-24T22:10:20.038Z,96336.69
2023-02-24T22:12:46.838Z,96336.38
2023-02-24T22:15:13.623Z,96326.28
2023-02-24T22:17:40.454Z,96318.16
2023-02-24T22:20:09.072Z,96307.75
2023-02-24T22:22:36.484Z,96302.38
2023-02-24T22:25:03.825Z,96294.09
2023-02-24T22:27:30.413Z,96289.38
2023-02-24T22:29:57.129Z,96289.22
2023-02-24T22:32:23.953Z,96289.75
2023-02-24T22:34:50.702Z,96286.78
2023-02-24T22:37:17.355Z,96275.59
2023-02-24T22:39:43.990Z,96275.59
2023-02-24T22:42:11.623Z,96269.41
2023-02-24T22:44:38.228Z,96263.56
2023-02-24T22:47:04.922Z,96266.97
2023-02-24T22:49:31.554Z,96269.38
2023-02-24T22:51:58.204Z,96265.16
2023-02-24T22:54:24.870Z,96266.97
2023-02-24T22:56:51.482Z,96271.31
2023-02-24T22:59:18.080Z,96258.16
2023-02-24T23:01:44.640Z,96261.91
2023-02-24T23:04:14.175Z,96257.00
2023-02-24T23:06:41.616Z,96257.28
2023-02-24T23:09:08.976Z,96266.72
2023-02-24T23:11:44.589Z,96266.06
2023-02-24T23:14:13.816Z,96259.38
2023-02-24T23:16:42.507Z,96265.06
2023-02-24T23:19:16.190Z,96267.97
2023-02-24T23:21:45.253Z,96276.41
2023-02-24T23:24:12.616Z,96282.53
2023-02-24T23:26:51.388Z,96281.22
2023-02-24T23:29:18.092Z,96283.19
2023-02-24T23:31:44.772Z,96283.94
2023-02-24T23:34:11.968Z,96290.22
2023-02-24T23:36:39.911Z,96289.25
2023-02-24T23:39:06.895Z,96296.06
2023-02-24T23:41:34.009Z,96295.09
2023-02-24T23:44:00.619Z,96292.00
2023-02-24T23:46:27.220Z,96310.84
2023-02-24T23:48:53.989Z,96304.88
2023-02-24T23:51:20.812Z,96312.19
2023-02-24T23:53:48.412Z,96316.47
2023-02-24T23:56:17.940Z,96317.56
2023-02-24T23:58:44.583Z,96332.88
